Time;durP1;ratioP1;P1;durP2;ratioP2;P2;SDS_P1;SDS_P2;PMS_P1;PMS_P2;Temp;Humidity;BMP_temperature;BMP_pressure;BME280_temperature;BME280_humidity;BME280_pressure;Samples;Min_cycle;Max_cycle;Signal;HPM_P1;HPM_P2
2023/02/01 00:04:18;;;;;;;11.00;3.80;;;;;;;2.83;74.24;99547.31;112165;1238;23016;-80
2023/02/01 00:07:02;;;;;;;10.60;4.10;;;;;;;2.79;74.13;99540.52;112132;1242;23572;-79
2023/02/01 00:09:48;;;;;;;7.70;4.40;;;;;;;2.76;74.18;99535.09;112981;1236;21949;-77
2023/02/01 00:12:26;;;;;;;11.60;7.00;;;;;;;2.77;74.11;99538.34;113120;1236;23002;-78
2023/02/01 00:15:09;;;;;;;9.90;5.50;;;;;;;2.74;74.18;99537.35;112959;1237;22698;-78
2023/02/01 00:18:06;;;;;;;13.90;5.10;;;;;;;2.73;74.23;99536.16;112415;1242;21951;-79
2023/02/01 00:21:06;;;;;;;9.80;5.30;;;;;;;2.71;74.20;99540.16;112524;1242;23044;-78
2023/02/01 00:24:03;;;;;;;9.30;5.30;;;;;;;2.71;74.22;99544.13;112225;1242;21952;-79
2023/02/01 00:26:45;;;;;;;7.00;4.00;;;;;;;2.70;74.15;99545.35;112510;1242;22154;-78
2023/02/01 00:29:24;;;;;;;10.10;5.30;;;;;;;2.69;74.18;99549.83;112040;1247;21964;-79
2023/02/01 00:32:01;;;;;;;8.30;4.80;;;;;;;2.69;74.19;99548.63;111735;1247;21958;-78
2023/02/01 00:34:39;;;;;;;9.20;3.80;;;;;;;2.68;74.20;99556.20;111781;1247;23072;-79
2023/02/01 00:37:23;;;;;;;7.50;3.00;;;;;;;2.67;74.15;99556.39;112353;1242;21991;-78
2023/02/01 00:39:59;;;;;;;8.60;4.00;;;;;;;2.65;74.07;99558.48;112047;1247;22036;-79
2023/02/01 00:42:59;;;;;;;5.10;2.50;;;;;;;2.64;74.17;99555.92;111711;1247;23687;-79
2023/02/01 00:45:47;;;;;;;7.30;2.80;;;;;;;2.61;74.08;99563.02;111512;1251;21977;-78
2023/02/01 00:48:17;;;;;;;9.10;3.20;;;;;;;2.60;74.08;99564.59;111905;1246;21957;-78
2023/02/01 00:50:51;;;;;;;8.50;3.40;;;;;;;2.59;74.07;99573.89;112281;1242;21955;-80
2023/02/01 00:53:29;;;;;;;7.30;3.30;;;;;;;2.58;74.25;99579.21;112367;1242;23631;-79
2023/02/01 00:56:20;;;;;;;8.30;3.20;;;;;;;2.58;74.39;99579.23;112627;1242;21969;-78
2023/02/01 00:59:12;;;;;;;13.80;4.10;;;;;;;2.59;74.44;99580.58;112633;1242;21969;-80
2023/02/01 01:01:59;;;;;;;10.50;3.80;;;;;;;2.60;74.47;99579.03;112308;1242;21948;-79
2023/02/01 01:04:38;;;;;;;;;;;;;;;2.60;74.46;99580.73;112489;1238;23664;-77
2023/02/01 01:07:24;;;;;;;13.10;3.90;;;;;;;2.61;74.96;99586.23;112527;1242;22056;-80
2023/02/01 01:10:01;;;;;;;13.30;4.50;;;;;;;2.65;74.79;99583.39;112537;1244;23098;-81
2023/02/01 01:12:54;;;;;;;10.30;3.20;;;;;;;2.65;74.63;99583.05;112470;1244;21953;-81
2023/02/01 01:15:37;;;;;;;13.10;4.20;;;;;;;2.65;74.60;99584.59;112588;1244;22436;-80
2023/02/01 01:18:16;;;;;;;15.70;4.40;;;;;;;2.65;74.48;99584.92;112627;1244;22483;-80
2023/02/01 01:20:52;;;;;;;12.70;4.20;;;;;;;2.67;74.60;99583.88;112740;1244;21956;-79
2023/02/01 01:23:40;;;;;;;16.50;5.10;;;;;;;2.69;74.61;99585.20;111969;1249;21985;-79
2023/02/01 01:26:27;;;;;;;14.50;4.60;;;;;;;2.71;74.50;99580.20;111901;1249;21955;-80
2023/02/01 01:29:12;;;;;;;18.00;5.60;;;;;;;2.73;74.55;99577.57;111662;1249;23616;-79
2023/02/01 01:31:54;;;;;;;12.50;4.40;;;;;;;2.73;74.44;99579.98;111873;1249;23720;-79
2023/02/01 01:34:31;;;;;;;16.40;5.20;;;;;;;2.72;74.40;99576.75;111875;1249;21961;-81
2023/02/01 01:37:01;;;;;;;23.60;5.60;;;;;;;2.75;74.36;99585.27;111602;1249;21978;-79
2023/02/01 01:39:43;;;;;;;10.30;3.40;;;;;;;2.77;74.26;99588.68;111857;1249;23290;-80
2023/02/01 01:42:24;;;;;;;14.60;4.50;;;;;;;2.78;74.27;99585.58;111567;1252;22982;-79
2023/02/01 01:45:32;;;;;;;11.00;4.20;;;;;;;2.78;74.37;99587.30;111871;1248;23756;-79
2023/02/01 01:48:33;;;;;;;18.30;5.20;;;;;;;2.78;74.32;99578.87;112749;1238;21955;-80
2023/02/01 01:51:19;;;;;;;18.30;5.40;;;;;;;2.78;74.27;99579.03;112596;1242;23678;-80
2023/02/01 01:54:42;;;;;;;11.90;4.30;;;;;;;2.79;74.11;99582.81;112500;1243;21951;-80
2023/02/01 01:57:30;;;;;;;13.40;3.90;;;;;;;2.79;74.21;99581.61;112794;1242;21962;-80
2023/02/01 02:00:17;;;;;;;15.00;3.90;;;;;;;2.82;74.23;99581.73;112620;1237;21953;-80
2023/02/01 02:02:53;;;;;;;16.40;4.20;;;;;;;2.86;74.19;99584.74;113029;1237;21943;-81
2023/02/01 02:05:31;;;;;;;11.80;4.80;;;;;;;2.93;74.14;99588.73;113224;1238;21969;-80
2023/02/01 02:08:10;;;;;;;13.60;3.90;;;;;;;2.99;74.11;99584.16;113121;1237;21945;-80
2023/02/01 02:11:00;;;;;;;18.10;4.10;;;;;;;3.04;73.89;99584.56;112805;1237;22038;-80
2023/02/01 02:13:44;;;;;;;14.10;4.20;;;;;;;3.06;73.68;99587.45;113077;1237;21994;-79
2023/02/01 02:16:57;;;;;;;14.50;3.90;;;;;;;3.04;73.64;99580.09;113637;1231;21961;-79
2023/02/01 02:20:23;;;;;;;12.80;3.70;;;;;;;3.02;73.44;99587.87;113852;1231;21944;-78
2023/02/01 02:23:53;;;;;;;14.40;3.80;;;;;;;2.97;73.27;99590.73;113627;1231;21935;-79
2023/02/01 02:27:47;;;;;;;11.40;3.90;;;;;;;2.92;73.26;99590.13;113848;1231;23016;-79
2023/02/01 02:30:57;;;;;;;13.80;3.80;;;;;;;2.89;73.30;99586.73;112573;1233;23931;-79
2023/02/01 02:34:33;;;;;;;14.60;4.00;;;;;;;2.88;73.28;99585.38;112785;1240;22149;-79
2023/02/01 02:38:21;;;;;;;12.80;4.50;;;;;;;2.88;73.36;99583.32;112623;1240;23695;-79
2023/02/01 02:41:08;;;;;;;12.80;3.40;;;;;;;2.88;73.30;99585.05;111655;1252;22718;-80
2023/02/01 02:47:27;;;;;;;12.40;5.00;;;;;;;2.88;73.02;99592.95;111622;1253;23482;-79
2023/02/01 03:06:22;;;;;;;16.70;4.20;;;;;;;2.80;72.87;99602.71;112515;1240;23005;-80
2023/02/01 03:09:19;;;;;;;10.60;3.50;;;;;;;2.81;72.76;99595.33;112447;1245;21954;-81
2023/02/01 03:15:27;;;;;;;15.90;4.70;;;;;;;2.82;72.65;99599.75;112285;1245;22708;-80
2023/02/01 03:18:21;;;;;;;12.30;4.10;;;;;;;2.83;72.60;99597.86;112237;1244;21998;-80
2023/02/01 03:20:56;;;;;;;12.70;3.70;;;;;;;2.84;72.50;99606.08;112267;1244;22973;-79
2023/02/01 03:23:39;;;;;;;11.80;3.30;;;;;;;2.85;72.34;99605.89;111912;1249;23591;-80
2023/02/01 03:26:32;;;;;;;16.20;4.20;;;;;;;2.86;72.34;99606.73;111485;1249;23021;-79
2023/02/01 03:29:20;;;;;;;14.00;4.50;;;;;;;2.86;72.32;99613.95;111690;1249;23824;-79
2023/02/01 03:31:55;;;;;;;14.30;4.80;;;;;;;2.88;72.25;99611.16;111729;1249;21964;-79
2023/02/01 03:34:32;;;;;;;11.90;3.30;;;;;;;2.91;72.20;99606.29;111699;1247;21980;-78
2023/02/01 03:37:30;;;;;;;10.40;3.70;;;;;;;2.95;72.19;99604.17;111846;1246;23518;-78
2023/02/01 03:40:18;;;;;;;15.20;4.80;;;;;;;3.00;72.19;99600.81;111708;1246;21968;-79
2023/02/01 03:43:10;;;;;;;13.20;3.70;;;;;;;3.03;72.06;99599.20;111996;1248;23757;-80
2023/02/01 03:45:48;;;;;;;18.50;4.90;;;;;;;3.07;72.17;99601.20;111758;1248;23057;-78
2023/02/01 03:48:43;;;;;;;;;;;;;;;;;;;;;
2023/02/01 03:51:23;;;;;;;15.10;5.20;;;;;;;3.16;71.90;99596.02;111633;1252;22090;-78
2023/02/01 03:54:02;;;;;;;19.60;5.10;;;;;;;3.20;71.78;99596.65;111372;1252;22864;-79
2023/02/01 03:56:46;;;;;;;16.60;4.50;;;;;;;3.23;71.72;99590.20;111437;1249;21956;-79
2023/02/01 03:59:18;;;;;;;14.80;4.30;;;;;;;3.27;71.65;99590.29;111728;1249;23035;-78
2023/02/01 04:01:54;;;;;;;17.90;5.30;;;;;;;3.34;71.56;99590.69;112400;1244;21956;-80
2023/02/01 04:04:52;;;;;;;15.10;5.30;;;;;;;3.41;71.44;99589.17;112408;1243;21950;-79
2023/02/01 04:07:57;;;;;;;18.80;4.00;;;;;;;3.46;71.39;99587.34;112412;1244;21942;-80
2023/02/01 04:10:43;;;;;;;19.80;4.60;;;;;;;3.51;71.22;99581.56;112708;1238;22563;-80
2023/02/01 04:13:18;;;;;;;14.80;4.50;;;;;;;3.55;70.99;99586.64;113572;1231;21942;-79
2023/02/01 04:16:09;;;;;;;14.50;3.60;;;;;;;3.58;70.82;99593.80;113455;1231;23551;-80
2023/02/01 04:18:46;;;;;;;15.30;3.80;;;;;;;3.59;70.61;99593.62;113212;1238;22982;-80
2023/02/01 04:21:41;;;;;;;17.00;4.30;;;;;;;3.60;70.44;99592.90;113118;1238;23678;-78
2023/02/01 04:24:23;;;;;;;17.30;4.90;;;;;;;3.60;70.60;99596.33;113279;1238;21983;-77
2023/02/01 04:27:12;;;;;;;19.50;4.30;;;;;;;3.64;70.49;99592.82;112817;1238;23765;-78
2023/02/01 04:29:45;;;;;;;15.60;4.90;;;;;;;3.67;70.51;99594.46;112371;1243;23015;-78
2023/02/01 04:32:21;;;;;;;15.60;5.40;;;;;;;3.70;70.43;99593.70;112214;1243;21968;-78
2023/02/01 04:34:55;;;;;;;19.00;5.50;;;;;;;3.72;70.22;99593.33;112313;1243;21940;-79
2023/02/01 04:37:37;;;;;;;15.10;5.50;;;;;;;3.71;70.26;99591.11;112397;1243;23401;-78
2023/02/01 04:40:15;;;;;;;20.80;6.40;;;;;;;3.77;70.50;99597.19;112114;1243;23587;-77
2023/02/01 04:42:53;;;;;;;16.50;5.80;;;;;;;3.87;70.44;99596.27;111808;1244;21934;-78
2023/02/01 04:45:25;;;;;;;18.50;6.20;;;;;;;3.91;70.26;99593.58;111672;1249;22974;-77
2023/02/01 04:48:12;;;;;;;25.80;7.00;;;;;;;3.95;70.00;99592.83;111922;1244;23028;-78
2023/02/01 04:50:47;;;;;;;18.20;5.80;;;;;;;3.92;69.61;99598.21;112042;1244;22040;-79
2023/02/01 04:53:17;;;;;;;18.60;5.80;;;;;;;3.89;69.50;99595.70;111945;1250;21957;-79
2023/02/01 04:55:57;;;;;;;19.00;6.00;;;;;;;3.84;69.31;99600.29;111509;1250;21963;-79
2023/02/01 04:58:43;;;;;;;16.50;6.00;;;;;;;3.81;69.45;99590.39;111606;1250;23763;-81
2023/02/01 05:01:35;;;;;;;17.70;5.80;;;;;;;3.78;69.47;99593.02;112175;1244;21955;-78
2023/02/01 05:04:23;;;;;;;15.00;5.30;;;;;;;3.77;69.38;99595.30;112773;1239;21965;-78
2023/02/01 05:07:07;;;;;;;19.00;6.70;;;;;;;3.75;69.37;99595.86;112518;1239;22008;-80
2023/02/01 05:10:06;;;;;;;;;;;;;;;3.74;69.42;99596.73;113110;1239;22066;-79
2023/02/01 05:16:41;;;;;;;19.50;6.50;;;;;;;3.63;69.53;99595.75;113373;1238;22010;-78
2023/02/01 05:19:44;;;;;;;17.70;5.40;;;;;;;3.64;69.53;99594.35;113094;1238;21943;-78
2023/02/01 05:22:48;;;;;;;20.00;6.80;;;;;;;3.67;69.44;99595.16;112805;1238;22715;-77
2023/02/01 05:29:45;;;;;;;17.60;6.00;;;;;;;3.67;69.34;99586.38;112103;1249;21982;-80
2023/02/01 05:33:06;;;;;;;17.20;6.10;;;;;;;3.69;69.22;99591.67;112055;1242;23048;-81
2023/02/01 05:36:19;;;;;;;18.00;5.40;;;;;;;3.70;69.28;99588.03;112019;1248;21959;-80
2023/02/01 05:39:45;;;;;;;20.40;6.70;;;;;;;3.72;69.07;99592.48;111985;1248;23760;-80
2023/02/01 05:42:45;;;;;;;18.80;6.30;;;;;;;3.75;69.04;99590.01;111343;1256;23138;-79
2023/02/01 05:46:12;;;;;;;21.70;5.30;;;;;;;3.77;68.98;99579.61;111311;1256;22054;-80
2023/02/01 05:49:13;;;;;;;19.40;5.20;;;;;;;3.79;68.90;99581.48;111647;1252;21969;-80
2023/02/01 05:56:51;;;;;;;16.60;5.50;;;;;;;3.76;68.79;99574.66;111414;1255;22433;-80
2023/02/01 05:59:40;;;;;;;21.10;6.30;;;;;;;3.78;68.78;99574.79;111052;1260;21987;-82
2023/02/01 06:02:38;;;;;;;17.10;6.60;;;;;;;3.80;68.69;99579.21;111030;1260;23614;-80
2023/02/01 06:05:22;;;;;;;23.50;6.50;;;;;;;3.81;68.75;99573.67;111123;1257;21981;-79
2023/02/01 06:08:28;;;;;;;23.00;6.70;;;;;;;3.83;68.66;99572.09;111332;1256;21980;-82
2023/02/01 06:11:32;;;;;;;16.00;5.80;;;;;;;3.81;68.59;99572.48;112040;1245;22407;-79
2023/02/01 06:14:10;;;;;;;20.30;7.00;;;;;;;3.82;68.50;99572.12;112276;1245;23714;-80
2023/02/01 06:17:16;;;;;;;17.20;7.70;;;;;;;3.81;68.41;99567.14;112426;1245;21953;-82
2023/02/01 06:20:01;;;;;;;21.20;7.50;;;;;;;3.78;68.41;99568.06;113056;1237;21921;-80
2023/02/01 06:22:53;;;;;;;;;;;;;;;;;;;;;
2023/02/01 06:25:30;;;;;;;23.30;8.60;;;;;;;3.79;68.53;99579.91;113525;1232;23581;-81
2023/02/01 06:28:08;;;;;;;19.80;7.10;;;;;;;3.82;68.42;99576.58;113089;1237;21963;-78
2023/02/01 06:30:56;;;;;;;16.20;6.20;;;;;;;3.83;68.32;99577.41;113240;1237;24305;-77
2023/02/01 06:35:17;;;;;;;;;;;;;;;;;;;;;
2023/02/01 06:39:01;;;;;;;;;;;;;;;;;;;;;
2023/02/01 06:42:52;;;;;;;22.10;6.50;;;;;;;3.79;68.47;99583.54;110995;1257;22005;-78
2023/02/01 06:46:32;;;;;;;21.00;6.90;;;;;;;3.80;68.42;99585.92;110552;1258;22021;-79
2023/02/01 06:49:48;;;;;;;20.20;6.60;;;;;;;3.82;68.59;99584.48;109541;1269;21987;-79
2023/02/01 06:52:30;;;;;;;21.90;6.70;;;;;;;3.86;68.36;99582.87;109170;1271;22008;-79
2023/02/01 06:55:16;;;;;;;;;;;;;;;;;;;;;
2023/02/01 06:58:12;;;;;;;22.80;7.00;;;;;;;3.90;68.14;99576.39;109189;1272;21991;-77
2023/02/01 07:01:29;;;;;;;17.10;5.50;;;;;;;3.92;68.09;99578.77;109304;1272;22008;-79
2023/02/01 07:08:15;;;;;;;;;;;;;;;;;;;;;
2023/02/01 07:22:46;;;;;;;;;;;;;;;;;;;;;
2023/02/01 07:26:56;;;;;;;17.70;5.90;;;;;;;5.68;60.43;99581.02;109033;1243;4615809;-83
2023/02/01 07:31:28;;;;;;;;;;;;;;;;;;;;;
2023/02/01 07:35:14;;;;;;;22.50;8.10;;;;;;;4.91;62.88;99582.16;111053;1260;22019;-82
2023/02/01 07:55:29;;;;;;;;;;;;;;;;;;;;;
2023/02/01 07:58:50;;;;;;;26.10;8.90;;;;;;;4.39;65.33;99575.25;108399;1289;23893;-80
2023/02/01 08:12:51;;;;;;;45.90;22.80;;;;;;;5.80;62.08;99565.42;110592;1259;548067;-82
2023/02/01 08:16:42;;;;;;;;;;;;;;;;;;;;;
2023/02/01 08:20:50;;;;;;;;;;;;;;;;;;;;;
2023/02/01 08:24:40;;;;;;;;;;;;;;;;;;;;;
2023/02/01 08:28:39;;;;;;;28.40;10.30;;;;;;;4.90;64.29;99553.58;111902;1250;23717;-81
2023/02/01 08:32:16;;;;;;;33.90;13.90;;;;;;;4.90;64.85;99560.65;111149;1257;21986;-82
2023/02/01 08:36:05;;;;;;;64.90;29.90;;;;;;;4.90;65.05;99557.02;110791;1264;23068;-84
2023/02/01 08:39:56;;;;;;;;;;;;;;;;;;;;;
2023/02/01 08:43:17;;;;;;;;;;;;;;;;;;;;;
2023/02/01 08:46:24;;;;;;;21.40;8.40;;;;;;;4.76;65.68;99556.89;110312;1266;23626;-75
2023/02/01 08:49:33;;;;;;;23.20;8.00;;;;;;;4.84;65.82;99562.54;109776;1267;23048;-79
2023/02/01 08:52:32;;;;;;;19.30;7.40;;;;;;;4.73;65.49;99560.41;110459;1258;23761;-79
2023/02/01 08:55:58;;;;;;;21.50;7.20;;;;;;;4.58;65.83;99558.91;110833;1258;22008;-78
2023/02/01 08:59:34;;;;;;;19.10;8.20;;;;;;;4.48;66.14;99555.38;110907;1258;21973;-79
2023/02/01 09:02:55;;;;;;;24.70;11.20;;;;;;;4.47;66.52;99553.00;110676;1261;22085;-79
2023/02/01 09:06:47;;;;;;;28.50;13.50;;;;;;;4.44;66.73;99553.57;111060;1254;23817;-78
2023/02/01 09:09:50;;;;;;;;;;;;;;;;;;;;;
2023/02/01 09:13:07;;;;;;;;;;;;;;;;;;;;;
2023/02/01 09:16:35;;;;;;;24.30;7.50;;;;;;;4.42;67.51;99562.76;112331;1246;22541;-79
2023/02/01 09:19:45;;;;;;;20.10;6.70;;;;;;;4.45;67.67;99561.83;112206;1234;22316;-78
2023/02/01 09:22:49;;;;;;;22.80;8.40;;;;;;;4.46;67.63;99559.39;113366;1233;22259;-79
2023/02/01 09:26:18;;;;;;;22.80;7.00;;;;;;;4.50;67.68;99550.15;112703;1240;22436;-79
2023/02/01 09:30:12;;;;;;;;;;;;;;;;;;;;;
2023/02/01 09:34:48;;;;;;;;;;;;;;;;;;;;;
2023/02/01 09:39:20;;;;;;;;;;;;;;;;;;;;;
2023/02/01 09:43:32;;;;;;;26.30;7.80;;;;;;;5.28;68.24;99541.30;111076;1256;23593;-79
2023/02/01 09:47:08;;;;;;;20.90;8.40;;;;;;;5.58;67.37;99538.70;110459;1263;21736;-79
2023/02/01 09:55:39;;;;;;;;;;;;;;;;;;;;;
2023/02/01 09:59:00;;;;;;;20.00;7.90;;;;;;;6.32;66.41;99527.90;108388;1286;22314;-79
2023/02/01 10:02:22;;;;;;;18.20;7.60;;;;;;;6.57;66.01;99522.76;107991;1289;23048;-79
2023/02/01 10:17:13;;;;;;;20.30;6.80;;;;;;;8.42;59.00;99516.45;110374;1254;548099;-75
2023/02/01 10:20:19;;;;;;;21.30;10.70;;;;;;;8.72;55.67;99511.66;109317;1242;4051172;-80
2023/02/01 10:23:50;;;;;;;19.40;10.10;;;;;;;8.21;56.90;99509.10;111704;1251;23694;-76
2023/02/01 10:28:02;;;;;;;;;;;;;;;;;;;;;
2023/02/01 10:31:44;;;;;;;;;;;;;;;;;;;;;
2023/02/01 10:35:56;;;;;;;;;;;;;;;;;;;;;
2023/02/01 10:39:42;;;;;;;;;;;;;;;;;;;;;
2023/02/01 10:44:28;;;;;;;;;;;;;;;;;;;;;
2023/02/01 10:48:11;;;;;;;;;;;;;;;;;;;;;
2023/02/01 10:52:14;;;;;;;;;;;;;;;;;;;;;
2023/02/01 10:57:25;;;;;;;;;;;;;;;;;;;;;
2023/02/01 11:15:50;;;;;;;;;;;;;;;;;;;;;
2023/02/01 12:07:05;;;;;;;18.30;7.50;;;;;;;5.57;63.53;99452.25;108197;1289;22031;-82
2023/02/01 12:25:17;;;;;;;20.80;10.40;;;;;;;6.99;60.69;99426.98;106669;1259;6449509;-83
2023/02/01 12:30:20;;;;;;;28.50;13.10;;;;;;;6.30;62.61;99421.19;110072;1271;24011;-81
2023/02/01 12:35:45;;;;;;;;;;;;;;;;;;;;;
2023/02/01 12:39:50;;;;;;;;;;;;;;;;;;;;;
2023/02/01 12:43:53;;;;;;;;;;;;;;;;;;;;;
2023/02/01 12:48:26;;;;;;;;;;;;;;;;;;;;;
2023/02/01 12:52:36;;;;;;;;;;;;;;;;;;;;;
2023/02/01 12:55:56;;;;;;;;;;;;;;;;;;;;;
2023/02/01 13:18:48;;;;;;;9.40;6.30;;;;;;;6.45;62.64;99445.55;110823;1254;548156;-81
2023/02/01 13:23:02;;;;;;;;;;;;;;;;;;;;;
2023/02/01 13:36:34;;;;;;;;;;;;;;;;;;;;;
2023/02/01 13:50:52;;;;;;;;;;;;;;;;;;;;;
2023/02/01 13:56:11;;;;;;;;;;;;;;;;;;;;;
2023/02/01 14:10:06;;;;;;;21.00;13.80;;;;;;;5.03;67.07;99472.50;108512;1292;22025;-81
2023/02/01 14:14:12;;;;;;;;;;;;;;;;;;;;;
2023/02/01 14:59:09;;;;;;;;;;;;;;;;;;;;;
2023/02/01 17:03:12;;;;;;;24.90;15.60;;;;;;;4.93;67.16;99466.09;112781;1260;21884;-80
2023/02/01 17:08:01;;;;;;;29.40;17.40;;;;;;;4.83;67.34;99461.73;114161;1241;21858;-81
2023/02/01 17:17:57;;;;;;;;;;;;;;;;;;;;;
2023/02/01 17:21:51;;;;;;;;;;;;;;;;;;;;;
2023/02/01 17:25:54;;;;;;;;;;;;;;;;;;;;;
2023/02/01 17:45:51;;;;;;;;;;;;;;;;;;;;;
2023/02/01 17:55:10;;;;;;;15.70;8.20;;;;;;;4.81;65.68;99442.45;109360;1280;22034;-84
2023/02/01 17:59:26;;;;;;;23.90;14.90;;;;;;;4.68;66.21;99437.84;108976;1287;22072;-82
2023/02/01 18:34:20;;;;;;;;;;;;;;;;;;;;;
2023/02/01 18:38:56;;;;;;;27.50;16.90;;;;;;;4.99;65.15;99394.88;113807;1240;22032;-80
2023/02/01 18:43:15;;;;;;;;;;;;;;;;;;;;;
2023/02/01 19:13:02;;;;;;;17.30;10.20;;;;;;;5.52;62.33;99363.31;107704;1250;22024;-83
2023/02/01 19:21:25;;;;;;;18.70;12.60;;;;;;;4.71;64.41;99341.93;111988;1261;22003;-82
2023/02/01 19:25:15;;;;;;;19.40;11.90;;;;;;;4.59;64.83;99338.13;110854;1268;22000;-83
2023/02/01 19:28:21;;;;;;;17.70;10.30;;;;;;;4.53;65.26;99336.09;109816;1271;22010;-79
2023/02/01 19:31:15;;;;;;;18.60;10.60;;;;;;;4.43;65.33;99334.13;109830;1271;22403;-79
2023/02/01 19:40:44;;;;;;;;;;;;;;;;;;;;;
2023/02/01 19:44:52;;;;;;;;;;;;;;;;;;;;;
2023/02/01 19:52:20;;;;;;;12.60;8.20;;;;;;;4.18;67.17;99322.95;110025;1269;21990;-80
2023/02/01 19:55:32;;;;;;;;;;;;;;;;;;;;;
2023/02/01 19:58:59;;;;;;;;;;;;;;;;;;;;;
2023/02/01 20:03:32;;;;;;;;;;;;;;;;;;;;;
2023/02/01 20:07:26;;;;;;;;;;;;;;;;;;;;;
2023/02/01 20:11:29;;;;;;;;;;;;;;;;;;;;;
2023/02/01 20:26:34;;;;;;;;;;;;;;;;;;;;;
2023/02/01 20:46:03;;;;;;;18.40;14.40;;;;;;;5.50;64.13;99312.59;110768;1261;548376;-80
2023/02/01 20:49:45;;;;;;;20.60;16.30;;;;;;;5.00;64.87;99311.16;106348;1256;23601;-80
2023/02/01 20:53:52;;;;;;;;;;;;;;;;;;;;;
2023/02/01 20:57:52;;;;;;;;;;;;;;;;;;;;;
2023/02/01 21:05:38;;;;;;;23.20;15.40;;;;;;;3.76;68.40;99305.84;109437;1272;22466;-80
2023/02/01 21:17:08;;;;;;;;;;;;;;;;;;;;;
2023/02/01 21:20:33;;;;;;;17.90;14.30;;;;;;;3.63;69.94;99316.69;110955;1257;23710;-79
2023/02/01 21:24:29;;;;;;;;;;;;;;;;;;;;;
2023/02/01 21:31:01;;;;;;;17.20;13.60;;;;;;;3.54;70.65;99318.81;108525;1260;2134914;-79
2023/02/01 21:35:23;;;;;;;10.80;8.30;;;;;;;3.48;70.99;99329.11;109978;1267;21993;-78
2023/02/01 21:38:50;;;;;;;8.20;6.40;;;;;;;3.45;71.40;99338.13;109593;1268;23603;-78
2023/02/01 21:42:25;;;;;;;;;;;;;;;;;;;;;
2023/02/01 21:46:14;;;;;;;11.90;9.00;;;;;;;3.47;71.69;99358.71;109870;1270;23064;-80
2023/02/01 21:50:16;;;;;;;;;;;;;;;;;;;;;
2023/02/01 22:05:10;;;;;;;;;;;;;;;;;;;;;
2023/02/01 22:09:53;;;;;;;9.10;5.90;;;;;;;4.84;68.11;99388.77;105350;1245;23582;-80
2023/02/01 22:18:29;;;;;;;10.30;6.20;;;;;;;4.08;69.85;99395.89;109700;1271;22989;-81
2023/02/01 22:21:52;;;;;;;;;;;;;;;;;;;;;
2023/02/01 22:25:52;;;;;;;;;;;;;;;;;;;;;
2023/02/01 22:37:43;;;;;;;8.90;5.50;;;;;;;3.81;71.42;99403.80;110495;1267;21963;-82
2023/02/01 22:42:08;;;;;;;;;;;;;;;;;;;;;
2023/02/01 22:45:32;;;;;;;;;;;;;;;;;;;;;
2023/02/01 22:50:41;;;;;;;;;;;;;;;;;;;;;
2023/02/01 23:05:13;;;;;;;9.70;3.80;;;;;;;5.07;67.90;99404.21;110949;1257;547885;-78
2023/02/01 23:08:39;;;;;;;;;;;;;;;;;;;;;
2023/02/01 23:12:57;;;;;;;;;;;;;;;;;;;;;
2023/02/01 23:21:59;;;;;;;12.40;4.70;;;;;;;4.03;70.01;99408.60;109702;1272;22231;-77
2023/02/01 23:24:50;;;;;;;8.20;4.90;;;;;;;3.96;70.38;99409.96;109342;1272;22038;-79
2023/02/01 23:27:52;;;;;;;10.50;6.20;;;;;;;3.90;70.55;99415.63;109538;1268;23788;-79
2023/02/01 23:31:05;;;;;;;13.50;4.80;;;;;;;3.88;70.89;99414.31;109825;1268;23003;-79
2023/02/01 23:37:32;;;;;;;12.80;4.80;;;;;;;3.81;71.21;99410.69;109506;1272;21941;-78
2023/02/01 23:46:32;;;;;;;11.40;4.90;;;;;;;3.82;71.64;99409.46;108820;1276;23633;-80
2023/02/01 23:49:38;;;;;;;15.60;6.50;;;;;;;3.83;71.61;99410.80;109040;1276;21983;-79
2023/02/01 23:52:33;;;;;;;23.40;6.20;;;;;;;3.82;71.69;99414.61;109726;1270;22026;-79
2023/02/01 23:56:14;;;;;;;12.70;5.00;;;;;;;3.82;71.88;99415.13;110035;1270;23008;-80
2023/02/01 23:58:55;;;;;;;16.00;6.80;;;;;;;3.82;71.82;99409.29;110791;1256;21958;-78
